Time;durP1;ratioP1;P1;durP2;ratioP2;P2;SDS_P1;SDS_P2;PMS_P1;PMS_P2;Temp;Humidity;BMP_temperature;BMP_pressure;BME280_temperature;BME280_humidity;BME280_pressure;Samples;Min_cycle;Max_cycle;Signal;HPM_P1;HPM_P2
2022/03/26 00:01:40;;;;;;;153.35;71.92;;;;;;;0.05;66.77;95414.27;1664524;84;21565;-52
2022/03/26 00:04:07;;;;;;;151.32;70.92;;;;;;;0.11;66.45;95410.89;1652902;85;21105;-50
2022/03/26 00:06:34;;;;;;;158.80;75.42;;;;;;;0.05;66.46;95408.27;1648287;86;21067;-50
2022/03/26 00:09:01;;;;;;;154.95;76.12;;;;;;;0.00;66.81;95404.53;1653760;85;20967;-52
2022/03/26 00:11:30;;;;;;;191.32;86.35;;;;;;;0.02;67.07;95402.25;1665396;85;21225;-51
2022/03/26 00:13:58;;;;;;;157.97;75.67;;;;;;;0.01;67.07;95404.74;1660324;84;20974;-53
2022/03/26 00:16:27;;;;;;;183.93;85.12;;;;;;;0.00;67.40;95402.42;1636582;85;21043;-52
2022/03/26 00:18:54;;;;;;;182.10;86.40;;;;;;;0.00;67.64;95396.42;1658541;86;21029;-51
2022/03/26 00:21:23;;;;;;;169.07;81.53;;;;;;;0.07;67.39;95405.98;1661352;85;21573;-52
2022/03/26 00:23:51;;;;;;;172.40;83.40;;;;;;;0.07;67.17;95405.22;1662786;84;21446;-51
2022/03/26 00:26:18;;;;;;;170.25;82.82;;;;;;;0.04;67.24;95404.01;1666852;85;21510;-51
2022/03/26 00:28:47;;;;;;;201.88;91.90;;;;;;;0.08;67.52;95405.42;1655247;85;21071;-52
2022/03/26 00:31:14;;;;;;;178.32;82.30;;;;;;;0.15;67.43;95397.40;1634544;85;21038;-52
2022/03/26 00:33:42;;;;;;;168.00;78.17;;;;;;;0.23;67.29;95399.84;1645334;86;21475;-52
2022/03/26 00:36:09;;;;;;;163.95;77.75;;;;;;;0.30;67.04;95397.25;1668483;85;21855;-52
2022/03/26 00:38:37;;;;;;;198.62;90.00;;;;;;;0.36;67.17;95395.78;1668532;85;21022;-50
2022/03/26 00:41:06;;;;;;;189.70;87.05;;;;;;;0.42;66.83;95399.72;1654752;85;21027;-52
2022/03/26 00:43:33;;;;;;;170.92;85.03;;;;;;;0.41;66.78;95394.69;1632345;86;21542;-52
2022/03/26 00:46:00;;;;;;;177.15;79.75;;;;;;;0.40;66.95;95395.24;1659097;85;20979;-50
2022/03/26 00:48:27;;;;;;;175.07;84.58;;;;;;;0.42;66.98;95390.83;1667769;85;21145;-50
2022/03/26 00:50:54;;;;;;;169.93;80.42;;;;;;;0.41;67.24;95387.33;1657261;85;21086;-52
2022/03/26 00:53:21;;;;;;;168.15;82.15;;;;;;;0.47;67.12;95381.83;1651576;85;21039;-51
2022/03/26 00:55:50;;;;;;;171.53;77.92;;;;;;;0.49;66.97;95386.85;1642327;86;21050;-52
2022/03/26 00:58:18;;;;;;;160.43;75.15;;;;;;;0.50;66.62;95383.79;1659448;85;21072;-51
2022/03/26 01:00:46;;;;;;;160.97;76.67;;;;;;;0.44;66.67;95377.13;1655460;85;21751;-52
2022/03/26 01:03:16;;;;;;;192.43;88.80;;;;;;;0.42;67.00;95379.42;1644188;85;21078;-53
2022/03/26 01:05:44;;;;;;;222.75;102.53;;;;;;;0.44;66.91;95378.48;1658180;85;21121;-52
2022/03/26 01:08:11;;;;;;;243.00;111.90;;;;;;;0.45;66.75;95377.91;1674826;85;21128;-50
2022/03/26 01:10:41;;;;;;;207.35;95.62;;;;;;;0.51;66.70;95384.55;1664892;85;20974;-51
2022/03/26 01:13:09;;;;;;;207.00;96.22;;;;;;;0.54;66.24;95371.63;1657872;85;21222;-51
2022/03/26 01:15:36;;;;;;;203.00;98.95;;;;;;;0.56;66.06;95375.55;1667054;85;21542;-50
2022/03/26 01:18:06;;;;;;;245.42;111.62;;;;;;;0.56;66.08;95371.48;1652583;85;21031;-50
2022/03/26 01:20:34;;;;;;;193.75;96.10;;;;;;;0.58;66.03;95373.84;1660485;85;21120;-51
2022/03/26 01:23:01;;;;;;;201.82;92.02;;;;;;;0.55;66.05;95370.52;1662320;85;21098;-51
2022/03/26 01:25:29;;;;;;;215.85;99.35;;;;;;;0.56;66.11;95367.42;1659122;85;21146;-51
2022/03/26 01:27:56;;;;;;;198.23;90.10;;;;;;;0.55;65.94;95369.92;1643770;85;21019;-49
2022/03/26 01:30:24;;;;;;;212.88;101.85;;;;;;;0.47;66.22;95372.35;1649046;86;21085;-53
2022/03/26 01:32:55;;;;;;;238.30;106.45;;;;;;;0.37;66.38;95370.27;1667123;85;21599;-51
2022/03/26 01:35:22;;;;;;;229.50;102.82;;;;;;;0.33;66.91;95374.08;1650750;86;21410;-50
2022/03/26 01:37:50;;;;;;;231.40;104.07;;;;;;;0.35;66.85;95371.22;1655140;84;21773;-51
2022/03/26 01:40:18;;;;;;;235.10;105.47;;;;;;;0.46;66.99;95369.44;1640982;86;20999;-50
2022/03/26 01:42:45;;;;;;;185.30;87.02;;;;;;;0.57;66.46;95364.16;1659557;86;21037;-53
2022/03/26 01:45:13;;;;;;;164.00;79.03;;;;;;;0.58;66.05;95362.42;1664341;85;21108;-52
2022/03/26 01:47:41;;;;;;;153.02;70.03;;;;;;;0.47;65.87;95360.17;1658819;86;21546;-51
2022/03/26 01:50:09;;;;;;;154.03;71.60;;;;;;;0.45;65.72;95367.09;1638866;85;21941;-52
2022/03/26 01:52:36;;;;;;;160.48;78.17;;;;;;;0.39;65.56;95364.52;1657601;85;20949;-51
2022/03/26 01:55:05;;;;;;;181.50;83.87;;;;;;;0.35;65.72;95364.45;1644851;86;21125;-52
2022/03/26 01:57:32;;;;;;;176.60;83.20;;;;;;;0.38;66.00;95361.02;1649190;85;21047;-52
2022/03/26 02:00:01;;;;;;;171.18;80.22;;;;;;;0.45;65.74;95358.38;1657840;86;21451;-53
2022/03/26 02:02:28;;;;;;;179.35;84.40;;;;;;;0.46;65.71;95355.91;1649593;85;21172;-53
2022/03/26 02:04:56;;;;;;;170.97;87.30;;;;;;;0.42;65.67;95359.13;1660660;84;21109;-50
2022/03/26 02:07:23;;;;;;;179.40;87.10;;;;;;;0.44;65.75;95346.59;1655380;85;21057;-50
2022/03/26 02:09:52;;;;;;;156.70;72.10;;;;;;;0.35;65.81;95351.48;1643902;86;21023;-51
2022/03/26 02:12:27;;;;;;;134.25;67.22;;;;;;;0.27;65.82;95342.53;1645568;86;20983;-49
2022/03/26 02:14:57;;;;;;;131.27;63.00;;;;;;;0.18;65.68;95350.13;1659153;85;21153;-52
2022/03/26 02:17:24;;;;;;;137.15;66.55;;;;;;;0.07;65.92;95349.77;1647031;86;21534;-50
2022/03/26 02:19:59;;;;;;;149.90;70.20;;;;;;;0.06;66.20;95346.27;1652081;86;21568;-49
2022/03/26 02:22:29;;;;;;;178.10;83.50;;;;;;;0.11;66.36;95353.30;1654709;85;21115;-52
2022/03/26 02:24:57;;;;;;;204.00;97.55;;;;;;;0.11;65.99;95350.03;1646511;85;20984;-51
2022/03/26 02:27:27;;;;;;;170.38;81.50;;;;;;;-0.03;66.33;95349.63;1656761;85;21475;-50
2022/03/26 02:29:54;;;;;;;161.92;73.87;;;;;;;-0.12;66.74;95357.20;1656568;85;21046;-51
2022/03/26 02:32:27;;;;;;;157.78;69.25;;;;;;;-0.17;67.13;95345.36;1645870;85;21019;-52
2022/03/26 02:34:55;;;;;;;212.32;87.15;;;;;;;-0.24;66.92;95346.63;1659281;85;21058;-50
2022/03/26 02:37:23;;;;;;;240.28;98.03;;;;;;;-0.32;67.03;95345.73;1670842;85;21511;-52
2022/03/26 02:39:51;;;;;;;212.23;89.83;;;;;;;-0.40;67.23;95341.94;1660660;85;21168;-51
2022/03/26 02:42:19;;;;;;;233.78;92.95;;;;;;;-0.39;67.46;95344.25;1659865;85;20975;-50
2022/03/26 02:44:46;;;;;;;217.10;94.37;;;;;;;-0.34;67.51;95344.52;1644144;86;21002;-50
2022/03/26 02:47:14;;;;;;;216.82;96.78;;;;;;;-0.28;67.63;95345.77;1655346;85;21054;-52
2022/03/26 02:49:42;;;;;;;196.90;91.80;;;;;;;-0.24;67.50;95342.56;1645839;86;20963;-53
2022/03/26 02:52:10;;;;;;;207.65;96.80;;;;;;;-0.22;67.44;95347.03;1649122;85;21212;-53
2022/03/26 02:54:38;;;;;;;206.53;93.62;;;;;;;-0.25;67.47;95343.71;1648820;85;21054;-52
2022/03/26 02:57:05;;;;;;;195.92;88.58;;;;;;;-0.20;67.60;95348.80;1643440;85;21049;-50
2022/03/26 02:59:33;;;;;;;173.87;77.00;;;;;;;-0.15;67.55;95350.63;1658214;85;21057;-51
2022/03/26 03:02:02;;;;;;;191.07;85.97;;;;;;;-0.12;67.06;95350.45;1660137;85;21471;-49
2022/03/26 03:04:30;;;;;;;175.53;79.97;;;;;;;-0.18;66.88;95342.45;1670078;85;21113;-49
2022/03/26 03:06:58;;;;;;;176.30;80.95;;;;;;;-0.18;66.91;95345.16;1649794;84;21447;-51
2022/03/26 03:09:25;;;;;;;182.15;80.35;;;;;;;-0.19;66.91;95344.36;1657833;85;21522;-49
2022/03/26 03:11:52;;;;;;;179.85;78.75;;;;;;;-0.19;67.03;95342.25;1664376;85;21467;-52
2022/03/26 03:14:21;;;;;;;205.90;100.20;;;;;;;-0.17;67.01;95343.45;1656345;85;21091;-51
2022/03/26 03:16:49;;;;;;;237.35;108.30;;;;;;;-0.13;67.13;95340.78;1657238;85;21111;-51
2022/03/26 03:19:17;;;;;;;325.57;141.80;;;;;;;-0.20;67.12;95337.98;1663871;85;21527;-51
2022/03/26 03:21:44;;;;;;;391.50;160.90;;;;;;;-0.24;67.30;95336.57;1627229;85;21028;-53
2022/03/26 03:24:13;;;;;;;252.53;110.75;;;;;;;-0.28;67.39;95343.06;1618784;87;21025;-51
2022/03/26 03:26:40;;;;;;;164.95;74.70;;;;;;;-0.33;67.25;95339.33;1623522;87;21077;-52
2022/03/26 03:29:07;;;;;;;196.47;89.00;;;;;;;-0.41;67.12;95333.03;1621092;87;21171;-51
2022/03/26 03:31:37;;;;;;;171.65;79.10;;;;;;;-0.48;67.26;95336.19;1624017;87;21018;-52
2022/03/26 03:34:04;;;;;;;176.32;79.70;;;;;;;-0.50;67.42;95331.73;1616094;87;21086;-52
2022/03/26 03:36:31;;;;;;;188.72;90.35;;;;;;;-0.52;67.69;95329.96;1618158;87;21090;-51
2022/03/26 03:38:59;;;;;;;198.65;93.10;;;;;;;-0.51;67.59;95339.62;1621177;87;21159;-51
2022/03/26 03:41:26;;;;;;;194.75;88.65;;;;;;;-0.51;67.60;95339.62;1628223;87;21207;-51
2022/03/26 03:43:53;;;;;;;180.78;86.75;;;;;;;-0.57;67.69;95337.80;1626446;87;21112;-53
2022/03/26 03:46:21;;;;;;;182.22;83.65;;;;;;;-0.58;68.07;95339.52;1620289;87;20993;-51
2022/03/26 03:48:48;;;;;;;199.10;93.12;;;;;;;-0.58;68.11;95340.29;1618536;87;21073;-52
2022/03/26 03:51:17;;;;;;;195.25;94.15;;;;;;;-0.64;68.31;95339.59;1618267;87;21069;-51
2022/03/26 03:53:45;;;;;;;162.43;79.60;;;;;;;-0.68;69.00;95334.72;1626805;87;21130;-50
2022/03/26 03:56:15;;;;;;;170.72;78.02;;;;;;;-0.64;69.06;95339.59;1623046;86;21068;-53
2022/03/26 03:58:44;;;;;;;198.45;88.07;;;;;;;-0.69;68.64;95339.91;1618498;87;21002;-50
2022/03/26 04:01:12;;;;;;;194.70;90.38;;;;;;;-0.72;68.73;95337.37;1615768;86;21462;-53
2022/03/26 04:03:40;;;;;;;206.15;99.07;;;;;;;-0.72;68.97;95336.03;1606159;88;21152;-51
2022/03/26 04:06:08;;;;;;;191.32;90.95;;;;;;;-0.67;69.05;95336.27;1618210;87;21217;-52
2022/03/26 04:08:35;;;;;;;214.17;95.92;;;;;;;-0.69;69.03;95333.95;1606651;87;21596;-52
2022/03/26 04:11:02;;;;;;;198.53;96.30;;;;;;;-0.68;69.14;95336.06;1622049;87;21600;-52
2022/03/26 04:13:31;;;;;;;192.47;89.83;;;;;;;-0.59;69.14;95334.67;1617327;87;21462;-50
2022/03/26 04:15:58;;;;;;;167.95;79.27;;;;;;;-0.56;68.85;95337.23;1630968;88;20994;-51
2022/03/26 04:18:25;;;;;;;157.88;75.80;;;;;;;-0.55;68.62;95330.69;1623993;86;21122;-52
2022/03/26 04:20:53;;;;;;;148.07;71.90;;;;;;;-0.58;68.57;95335.47;1628945;85;20959;-50
2022/03/26 04:23:21;;;;;;;158.27;76.22;;;;;;;-0.55;68.14;95340.14;1677727;85;21487;-52
2022/03/26 04:25:50;;;;;;;179.15;82.35;;;;;;;-0.59;67.91;95344.72;1678446;85;21479;-50
2022/03/26 04:28:18;;;;;;;170.97;86.90;;;;;;;-0.62;68.14;95337.34;1678980;84;21061;-53
2022/03/26 04:30:46;;;;;;;175.32;87.67;;;;;;;-0.56;68.62;95339.94;1674190;85;21099;-51
2022/03/26 04:33:14;;;;;;;178.38;84.40;;;;;;;-0.52;68.40;95340.77;1674394;85;21045;-53
2022/03/26 04:35:42;;;;;;;250.72;123.18;;;;;;;-0.57;68.37;95331.63;1654272;85;20995;-51
2022/03/26 04:38:09;;;;;;;212.97;96.55;;;;;;;-0.66;68.52;95340.53;1674329;85;22300;-52
2022/03/26 04:40:38;;;;;;;186.62;91.00;;;;;;;-0.69;68.71;95330.45;1676895;85;21499;-50
2022/03/26 04:43:06;;;;;;;195.72;92.67;;;;;;;-0.70;68.84;95338.34;1675801;84;21287;-51
2022/03/26 04:45:35;;;;;;;164.40;79.97;;;;;;;-0.74;69.07;95333.47;1673256;85;21059;-51
2022/03/26 04:48:03;;;;;;;163.60;76.75;;;;;;;-0.68;69.32;95336.06;1668104;85;21006;-50
2022/03/26 04:50:31;;;;;;;145.43;71.45;;;;;;;-0.63;68.98;95337.14;1674505;85;20979;-52
2022/03/26 04:52:58;;;;;;;144.40;73.92;;;;;;;-0.62;68.78;95333.29;1676771;85;20987;-50
2022/03/26 04:55:27;;;;;;;173.35;83.80;;;;;;;-0.58;68.88;95337.58;1672939;84;21172;-52
2022/03/26 04:57:55;;;;;;;176.72;88.80;;;;;;;-0.49;68.90;95330.02;1675593;84;20970;-52
2022/03/26 05:00:23;;;;;;;179.45;92.57;;;;;;;-0.46;68.60;95332.00;1678451;84;21614;-52
2022/03/26 05:02:50;;;;;;;196.60;97.88;;;;;;;-0.52;68.71;95338.06;1674595;84;21549;-51
2022/03/26 05:05:17;;;;;;;195.85;97.08;;;;;;;-0.53;68.88;95339.20;1673524;85;21459;-52
2022/03/26 05:07:48;;;;;;;206.70;98.07;;;;;;;-0.53;69.04;95342.70;1669868;85;21157;-52
2022/03/26 05:10:24;;;;;;;240.07;107.07;;;;;;;-0.52;69.02;95339.42;1669866;85;21023;-50
2022/03/26 05:12:52;;;;;;;220.48;103.62;;;;;;;-0.51;69.20;95347.17;1675146;84;21515;-51
2022/03/26 05:15:21;;;;;;;241.02;109.65;;;;;;;-0.46;69.37;95347.41;1664489;84;21523;-51
2022/03/26 05:17:51;;;;;;;197.53;94.67;;;;;;;-0.39;69.46;95348.31;1634442;85;20991;-52
2022/03/26 05:20:18;;;;;;;181.15;87.05;;;;;;;-0.30;69.46;95344.80;1674750;85;21812;-51
2022/03/26 05:22:47;;;;;;;134.45;65.47;;;;;;;-0.16;69.56;95350.41;1673494;85;21577;-51
2022/03/26 05:25:16;;;;;;;142.07;70.57;;;;;;;-0.06;69.18;95347.66;1673609;84;21519;-56
2022/03/26 05:27:53;;;;;;;149.85;74.47;;;;;;;-0.01;69.00;95345.39;1680188;84;20997;-49
2022/03/26 05:30:21;;;;;;;134.37;68.42;;;;;;;0.06;68.93;95342.81;1681609;85;21015;-51
2022/03/26 05:32:48;;;;;;;157.20;73.80;;;;;;;0.17;68.82;95343.16;1675608;85;21162;-51
2022/03/26 05:35:16;;;;;;;147.30;75.65;;;;;;;0.23;68.61;95345.73;1674131;84;21081;-51
2022/03/26 05:37:45;;;;;;;160.63;79.20;;;;;;;0.30;68.56;95345.84;1674923;85;21042;-52
2022/03/26 05:40:16;;;;;;;182.00;78.85;;;;;;;0.36;68.50;95344.92;1675682;85;21085;-52
2022/03/26 05:42:45;;;;;;;158.12;81.65;;;;;;;0.46;68.64;95335.61;1676187;85;21065;-52
2022/03/26 05:45:12;;;;;;;163.60;84.72;;;;;;;0.70;68.48;95343.23;1677587;85;21459;-52
2022/03/26 05:47:39;;;;;;;170.47;85.35;;;;;;;0.90;68.04;95346.53;1675199;85;21514;-51
2022/03/26 05:50:10;;;;;;;172.25;89.80;;;;;;;1.11;67.71;95344.83;1672169;85;20995;-51
2022/03/26 05:52:37;;;;;;;197.47;106.65;;;;;;;1.32;67.15;95349.68;1672824;85;20999;-51
2022/03/26 05:55:06;;;;;;;212.05;114.72;;;;;;;1.46;66.87;95341.09;1671851;85;21038;-53
2022/03/26 05:57:33;;;;;;;172.35;91.37;;;;;;;1.69;66.68;95341.66;1672665;85;21149;-51
2022/03/26 06:00:01;;;;;;;160.85;89.15;;;;;;;1.88;65.84;95340.84;1673021;85;20971;-52
2022/03/26 06:02:28;;;;;;;147.53;79.70;;;;;;;1.93;65.64;95346.50;1673250;85;21109;-49
2022/03/26 06:04:58;;;;;;;137.60;72.35;;;;;;;2.08;65.39;95345.41;1654024;85;20970;-53
2022/03/26 06:07:25;;;;;;;115.62;62.33;;;;;;;2.16;64.92;95341.00;1673178;85;21022;-50
2022/03/26 06:09:53;;;;;;;114.52;61.33;;;;;;;2.21;64.77;95342.59;1674298;85;21252;-50
2022/03/26 06:12:21;;;;;;;125.45;62.25;;;;;;;2.23;64.63;95337.56;1663302;85;21440;-53
2022/03/26 06:14:50;;;;;;;139.28;67.85;;;;;;;2.28;64.67;95337.98;1670216;85;20977;-50
2022/03/26 06:17:19;;;;;;;153.42;74.75;;;;;;;2.46;64.60;95339.42;1657615;85;21130;-50
2022/03/26 06:19:50;;;;;;;116.45;58.75;;;;;;;2.68;64.37;95335.66;1653922;85;21017;-51
2022/03/26 06:22:17;;;;;;;113.85;55.00;;;;;;;2.87;63.72;95342.13;1666990;85;21192;-51
2022/03/26 06:24:44;;;;;;;140.03;69.22;;;;;;;2.96;63.50;95334.38;1666504;85;21176;-51
2022/03/26 06:27:11;;;;;;;140.45;72.37;;;;;;;2.99;63.12;95333.61;1637693;86;20988;-52
2022/03/26 06:29:39;;;;;;;108.87;56.53;;;;;;;3.03;62.91;95331.70;1656361;86;21040;-52
2022/03/26 06:32:09;;;;;;;90.75;49.42;;;;;;;3.13;62.54;95332.28;1635165;86;21525;-53
2022/03/26 06:34:38;;;;;;;103.40;51.68;;;;;;;3.30;62.08;95336.41;1635451;84;21131;-54
2022/03/26 06:37:05;;;;;;;98.72;53.08;;;;;;;3.43;61.62;95324.58;1662631;84;21565;-55
2022/03/26 06:39:32;;;;;;;116.28;63.33;;;;;;;3.52;61.30;95322.43;1651599;85;21013;-53
2022/03/26 06:42:00;;;;;;;93.75;53.58;;;;;;;3.66;60.94;95319.72;1652501;86;21189;-50
2022/03/26 06:44:27;;;;;;;85.53;47.88;;;;;;;3.82;60.62;95318.74;1664602;85;21137;-54
2022/03/26 06:46:55;;;;;;;88.25;46.60;;;;;;;3.93;60.31;95318.73;1651570;85;21203;-49
2022/03/26 06:49:23;;;;;;;89.55;48.38;;;;;;;4.04;59.97;95313.47;1649614;85;21553;-52
2022/03/26 06:51:51;;;;;;;93.70;49.00;;;;;;;4.17;59.62;95321.99;1652418;86;21024;-50
2022/03/26 06:54:19;;;;;;;87.92;52.17;;;;;;;4.35;59.49;95313.98;1650199;85;21537;-51
2022/03/26 06:56:47;;;;;;;85.60;49.50;;;;;;;4.59;59.11;95314.48;1661009;86;21032;-51
2022/03/26 06:59:16;;;;;;;87.17;51.23;;;;;;;4.82;59.07;95307.20;1654607;84;21218;-51
2022/03/26 07:01:45;;;;;;;92.25;53.92;;;;;;;4.99;58.82;95303.01;1655954;84;21037;-53
2022/03/26 07:04:14;;;;;;;89.40;49.93;;;;;;;5.18;58.55;95298.42;1663414;85;21136;-53
2022/03/26 07:06:42;;;;;;;83.07;49.77;;;;;;;5.38;58.26;95293.42;1659696;84;21016;-53
2022/03/26 07:09:09;;;;;;;78.78;44.83;;;;;;;5.59;57.77;95288.41;1649786;85;21120;-52
2022/03/26 07:11:37;;;;;;;68.97;42.35;;;;;;;5.82;57.01;95293.48;1619886;86;21146;-52
2022/03/26 07:14:05;;;;;;;88.70;48.58;;;;;;;5.97;56.04;95285.97;1646546;85;21018;-51
2022/03/26 07:16:33;;;;;;;85.72;48.00;;;;;;;6.02;55.90;95285.52;1653686;85;21049;-53
2022/03/26 07:19:01;;;;;;;104.12;53.68;;;;;;;6.12;55.68;95281.31;1651020;85;21435;-51
2022/03/26 07:21:29;;;;;;;108.83;56.60;;;;;;;6.23;55.21;95282.00;1660200;85;21009;-55
2022/03/26 07:23:56;;;;;;;85.00;45.05;;;;;;;6.33;54.99;95278.97;1655383;85;22121;-52
2022/03/26 07:26:25;;;;;;;70.57;39.50;;;;;;;6.46;54.67;95277.24;1654340;85;21553;-53
2022/03/26 07:28:55;;;;;;;67.35;39.63;;;;;;;6.63;54.32;95263.97;1657380;85;21542;-52
2022/03/26 07:31:22;;;;;;;71.70;40.25;;;;;;;6.77;53.95;95265.16;1654604;85;21947;-53
2022/03/26 07:33:49;;;;;;;68.67;39.15;;;;;;;6.91;53.99;95264.98;1645050;85;21149;-54
2022/03/26 07:36:17;;;;;;;77.15;40.43;;;;;;;7.09;53.66;95258.87;1655266;85;21591;-54
2022/03/26 07:38:45;;;;;;;75.35;40.83;;;;;;;7.28;53.09;95258.20;1645036;85;21030;-55
2022/03/26 07:41:13;;;;;;;70.70;43.10;;;;;;;7.48;52.91;95245.37;1675064;84;21030;-55
2022/03/26 07:43:40;;;;;;;59.93;36.10;;;;;;;7.72;52.11;95242.07;1650830;85;20976;-55
2022/03/26 07:46:09;;;;;;;57.75;34.20;;;;;;;7.93;51.45;95229.37;1660374;84;21057;-54
2022/03/26 07:48:36;;;;;;;49.70;29.12;;;;;;;8.12;51.20;95225.32;1660855;84;22395;-55
2022/03/26 07:51:04;;;;;;;50.58;31.40;;;;;;;8.33;51.18;95226.31;1663952;85;21135;-55
2022/03/26 07:53:31;;;;;;;52.27;29.00;;;;;;;8.56;50.22;95228.99;1654337;84;21068;-56
2022/03/26 07:55:59;;;;;;;42.55;26.57;;;;;;;8.77;50.33;95220.94;1633983;85;21109;-55
2022/03/26 07:58:26;;;;;;;49.58;28.40;;;;;;;8.97;50.28;95208.14;1671973;85;21030;-55
2022/03/26 08:00:54;;;;;;;52.78;27.42;;;;;;;9.19;49.45;95213.91;1659624;85;21102;-57
2022/03/26 08:03:21;;;;;;;46.33;25.32;;;;;;;9.40;48.92;95207.95;1630673;86;21055;-58
2022/03/26 08:05:48;;;;;;;41.83;23.07;;;;;;;9.57;48.34;95206.73;1655435;85;21096;-57
2022/03/26 08:08:16;;;;;;;39.25;21.50;;;;;;;9.76;47.74;95204.52;1674773;84;21106;-55
2022/03/26 08:10:44;;;;;;;33.33;21.65;;;;;;;9.91;46.82;95201.56;1660821;85;21527;-58
2022/03/26 08:13:12;;;;;;;44.40;23.62;;;;;;;9.96;46.27;95196.32;1663921;84;21255;-56
2022/03/26 08:15:41;;;;;;;39.83;24.85;;;;;;;10.01;46.25;95197.20;1663509;84;22044;-58
2022/03/26 08:18:09;;;;;;;41.90;25.32;;;;;;;10.11;46.11;95196.75;1652304;85;21086;-59
2022/03/26 08:20:39;;;;;;;39.53;25.08;;;;;;;10.21;46.09;95191.58;1655722;85;21470;-57
2022/03/26 08:23:06;;;;;;;43.73;26.02;;;;;;;10.33;45.98;95183.37;1649717;85;21386;-58
2022/03/26 08:28:21;;;;;;;37.80;20.43;;;;;;;10.73;45.22;95176.95;1650884;85;21068;-57
2022/03/26 08:30:49;;;;;;;28.15;19.75;;;;;;;10.89;44.56;95169.37;1659177;84;21142;-57
2022/03/26 08:33:17;;;;;;;31.48;18.32;;;;;;;11.00;44.31;95165.09;1656940;85;21150;-57
2022/03/26 08:35:44;;;;;;;28.02;16.65;;;;;;;11.15;44.28;95166.20;1663586;84;21100;-62
2022/03/26 08:38:12;;;;;;;33.18;17.52;;;;;;;11.36;43.80;95162.78;1657722;85;21258;-56
2022/03/26 08:40:41;;;;;;;32.48;17.65;;;;;;;11.56;43.55;95159.83;1658164;85;21136;-55
2022/03/26 08:43:10;;;;;;;32.60;18.90;;;;;;;11.74;43.16;95151.75;1647484;87;21101;-57
2022/03/26 08:45:40;;;;;;;43.63;19.40;;;;;;;11.92;42.83;95148.55;1649442;84;21124;-57
2022/03/26 08:48:07;;;;;;;28.10;16.87;;;;;;;12.09;42.53;95144.41;1642275;85;21066;-57
2022/03/26 08:50:36;;;;;;;27.48;14.68;;;;;;;12.25;42.29;95140.11;1657479;84;21112;-58
2022/03/26 08:53:04;;;;;;;29.55;14.98;;;;;;;12.48;42.05;95136.89;1664785;84;21191;-57
2022/03/26 08:55:33;;;;;;;35.58;30.52;;;;;;;12.75;41.94;95132.32;1642052;85;21668;-57
2022/03/26 08:58:00;;;;;;;33.80;24.12;;;;;;;13.08;41.13;95135.46;1663514;85;21009;-56
2022/03/26 09:00:27;;;;;;;34.73;26.95;;;;;;;13.38;40.22;95130.50;1665421;84;21657;-56
2022/03/26 09:02:55;;;;;;;41.00;15.23;;;;;;;13.62;39.67;95127.37;1647285;85;22244;-57
2022/03/26 09:05:23;;;;;;;32.03;13.32;;;;;;;13.84;38.26;95132.17;1642168;85;21339;-58
2022/03/26 09:07:51;;;;;;;35.08;13.30;;;;;;;13.92;37.53;95129.25;1654206;84;21220;-57
2022/03/26 09:10:19;;;;;;;37.78;12.95;;;;;;;13.90;37.69;95127.56;1636571;85;21106;-57
2022/03/26 09:12:49;;;;;;;22.98;12.70;;;;;;;13.95;36.94;95119.43;1651921;85;22140;-57
2022/03/26 09:15:17;;;;;;;28.57;14.25;;;;;;;14.01;36.92;95118.21;1662858;84;21168;-57
2022/03/26 09:17:45;;;;;;;43.52;13.95;;;;;;;14.03;36.77;95120.66;1652815;85;21102;-57
2022/03/26 09:20:15;;;;;;;27.35;12.55;;;;;;;14.05;36.63;95111.31;1645463;86;21045;-58
2022/03/26 09:22:44;;;;;;;28.12;13.48;;;;;;;14.06;36.42;95120.36;1630034;86;21052;-58
2022/03/26 09:25:12;;;;;;;21.07;12.60;;;;;;;14.07;36.50;95120.52;1657880;85;21188;-56
2022/03/26 09:27:39;;;;;;;24.45;12.88;;;;;;;14.12;36.25;95115.14;1629659;86;21126;-58
2022/03/26 09:30:08;;;;;;;19.30;11.63;;;;;;;14.23;36.07;95113.33;1652306;86;21077;-57
2022/03/26 09:32:35;;;;;;;28.90;12.35;;;;;;;14.35;35.79;95110.39;1646798;86;21537;-58
2022/03/26 09:35:04;;;;;;;26.15;12.55;;;;;;;14.49;35.44;95111.16;1649021;85;21518;-57
2022/03/26 09:37:32;;;;;;;23.77;11.45;;;;;;;14.60;34.83;95109.45;1651953;85;21083;-57
2022/03/26 09:40:02;;;;;;;22.98;11.73;;;;;;;14.72;34.88;95109.91;1646715;86;21152;-58
2022/03/26 09:42:31;;;;;;;23.22;11.90;;;;;;;14.89;34.33;95104.77;1645228;85;21136;-57
2022/03/26 09:44:59;;;;;;;29.10;11.63;;;;;;;15.02;34.66;95101.95;1648461;85;21251;-58
2022/03/26 09:47:26;;;;;;;26.52;11.53;;;;;;;15.20;33.65;95101.14;1642822;86;21612;-57
2022/03/26 09:49:54;;;;;;;21.60;11.20;;;;;;;15.29;33.16;95111.59;1648003;85;21166;-55
2022/03/26 09:52:21;;;;;;;33.10;10.40;;;;;;;15.34;33.49;95100.50;1633037;86;21304;-57
2022/03/26 09:54:48;;;;;;;44.18;13.30;;;;;;;15.47;32.49;95096.88;1588535;89;21530;-59
2022/03/26 09:57:15;;;;;;;20.30;10.08;;;;;;;15.60;32.24;95090.49;1655494;85;21069;-57
2022/03/26 09:59:43;;;;;;;22.75;11.55;;;;;;;15.80;32.00;95099.78;1645720;85;21065;-58
2022/03/26 10:02:10;;;;;;;21.68;9.83;;;;;;;16.04;31.48;95074.78;1646845;85;21500;-58
2022/03/26 10:04:39;;;;;;;31.20;13.62;;;;;;;16.34;30.95;95065.46;1642269;85;21230;-57
2022/03/26 10:07:07;;;;;;;20.02;11.15;;;;;;;16.62;30.60;95072.91;1660122;84;21196;-56
2022/03/26 10:09:41;;;;;;;24.98;12.00;;;;;;;16.87;30.27;95087.66;1637684;85;21114;-57
2022/03/26 10:12:16;;;;;;;23.00;10.63;;;;;;;17.14;29.86;95081.78;1643022;86;21157;-57
2022/03/26 10:14:47;;;;;;;24.65;9.98;;;;;;;17.42;29.30;95068.47;1663814;84;21126;-57
2022/03/26 10:17:30;;;;;;;27.20;10.40;;;;;;;17.68;28.71;95073.52;1643674;84;21216;-56
2022/03/26 10:20:02;;;;;;;20.25;9.80;;;;;;;17.74;27.84;95077.78;1636148;86;21447;-57
2022/03/26 10:22:40;;;;;;;23.02;10.55;;;;;;;17.78;27.53;95068.59;1644800;85;21057;-58
2022/03/26 10:25:15;;;;;;;27.40;12.30;;;;;;;18.00;27.89;95058.52;1631130;85;21593;-59
2022/03/26 10:27:50;;;;;;;17.85;10.18;;;;;;;18.38;27.17;95070.16;1650441;84;21199;-58
2022/03/26 10:32:38;;;;;;;22.42;10.30;;;;;;;18.58;27.25;95053.41;1654383;85;21294;-59
2022/03/26 10:32:51;;;;;;;23.32;13.22;;;;;;;18.72;26.84;95058.12;1640767;85;20981;-60
2022/03/26 10:35:22;;;;;;;20.90;8.85;;;;;;;18.87;26.86;95055.95;1635141;86;21105;-57
2022/03/26 10:38:02;;;;;;;23.92;8.73;;;;;;;19.08;26.88;95044.88;1638792;85;21115;-56
2022/03/26 10:40:37;;;;;;;17.02;9.68;;;;;;;19.24;25.15;95042.89;1657741;85;21095;-58
2022/03/26 10:43:10;;;;;;;18.27;10.38;;;;;;;19.46;25.70;95045.05;1648236;86;21751;-58
2022/03/26 10:45:49;;;;;;;35.23;9.43;;;;;;;19.74;25.83;95046.75;1646752;85;21335;-58
2022/03/26 10:48:25;;;;;;;15.55;8.58;;;;;;;19.98;24.17;95035.98;1642530;86;21077;-58
2022/03/26 10:50:59;;;;;;;16.57;8.70;;;;;;;20.05;24.56;95034.13;1661432;85;21084;-57
2022/03/26 10:53:38;;;;;;;23.10;8.73;;;;;;;20.26;23.47;95044.64;1665876;84;21097;-60
2022/03/26 10:56:09;;;;;;;14.23;8.93;;;;;;;20.23;23.17;95031.66;1661431;85;21473;-58
2022/03/26 10:58:36;;;;;;;16.25;8.45;;;;;;;20.06;23.61;95034.26;1648057;85;21030;-56
2022/03/26 11:01:04;;;;;;;15.38;9.38;;;;;;;20.02;24.24;95024.58;1651025;85;21010;-55
2022/03/26 11:03:34;;;;;;;16.87;8.98;;;;;;;20.06;23.83;95016.72;1648252;87;21026;-56
2022/03/26 11:06:01;;;;;;;13.32;8.05;;;;;;;20.08;23.31;95020.55;1649308;86;20970;-55
2022/03/26 11:08:34;;;;;;;27.65;8.20;;;;;;;20.09;23.95;95005.31;1646805;86;21120;-56
2022/03/26 11:11:09;;;;;;;14.10;7.33;;;;;;;20.08;23.64;95014.97;1649405;86;25784;-55
2022/03/26 11:13:49;;;;;;;11.33;7.25;;;;;;;20.14;23.42;95003.17;1647680;86;21057;-54
2022/03/26 11:16:30;;;;;;;11.75;6.40;;;;;;;20.36;23.24;94989.28;1636867;86;21102;-55
2022/03/26 11:19:13;;;;;;;11.48;7.65;;;;;;;20.65;22.58;94990.99;1650984;86;21026;-52
2022/03/26 11:22:12;;;;;;;14.45;7.97;;;;;;;20.97;22.38;94978.34;1639730;86;20988;-55
2022/03/26 11:25:19;;;;;;;14.07;7.37;;;;;;;21.31;22.33;94985.41;1626499;84;21458;-53
2022/03/26 11:28:29;;;;;;;18.37;8.53;;;;;;;21.38;21.84;94982.11;1679003;84;21074;-54